Time;durP1;ratioP1;P1;durP2;ratioP2;P2;SDS_P1;SDS_P2;PMS_P1;PMS_P2;Temp;Humidity;BMP_temperature;BMP_pressure;BME280_temperature;BME280_humidity;BME280_pressure;Samples;Min_cycle;Max_cycle;Signal;HPM_P1;HPM_P2
2021/06/01 00:01:32;;;;;;;11.20;5.90;;;13.60;99.90;;;;;;6193749;23;20045;-86
2021/06/01 00:04:00;;;;;;;11.60;5.80;;;13.60;99.90;;;;;;6194561;23;20045;-86
2021/06/01 00:06:27;;;;;;;12.10;5.55;;;13.60;99.90;;;;;;6194611;23;20354;-86
2021/06/01 00:08:54;;;;;;;10.88;5.80;;;13.60;99.90;;;;;;6194892;23;20345;-86
2021/06/01 00:11:23;;;;;;;13.57;6.05;;;13.50;99.90;;;;;;6194847;23;20041;-86
2021/06/01 00:13:51;;;;;;;9.80;5.55;;;13.50;99.90;;;;;;6196923;23;20013;-86
2021/06/01 00:16:18;;;;;;;14.50;6.50;;;13.50;99.90;;;;;;6197015;23;20044;-85
2021/06/01 00:18:46;;;;;;;12.40;5.90;;;13.40;99.90;;;;;;6173217;23;20005;-85
2021/06/01 00:21:13;;;;;;;9.98;5.93;;;13.50;99.90;;;;;;6197302;23;20052;-85
2021/06/01 00:23:40;;;;;;;11.07;6.28;;;13.50;99.90;;;;;;6173985;23;20005;-85
2021/06/01 00:26:11;;;;;;;10.10;6.07;;;13.50;99.90;;;;;;6199717;23;20039;-86
2021/06/01 00:28:40;;;;;;;9.80;5.75;;;13.50;99.90;;;;;;6171006;23;20045;-86
2021/06/01 00:31:09;;;;;;;9.40;5.50;;;13.40;99.90;;;;;;6195140;23;20038;-85
2021/06/01 00:33:39;;;;;;;11.38;5.90;;;13.30;99.90;;;;;;6170537;23;20234;-86
2021/06/01 00:36:09;;;;;;;9.88;5.65;;;13.20;99.90;;;;;;6169663;23;20272;-85
2021/06/01 00:38:37;;;;;;;10.80;5.55;;;13.10;99.90;;;;;;6192926;23;20061;-85
2021/06/01 00:41:05;;;;;;;14.38;6.57;;;13.10;99.90;;;;;;6195760;23;20269;-86
2021/06/01 00:43:33;;;;;;;11.00;5.75;;;13.00;99.90;;;;;;6194852;23;20041;-86
2021/06/01 00:46:02;;;;;;;12.67;6.10;;;13.00;99.90;;;;;;6194804;23;20041;-86
2021/06/01 00:48:29;;;;;;;11.57;6.32;;;13.00;99.90;;;;;;6194878;23;20109;-86
2021/06/01 00:50:57;;;;;;;13.13;6.80;;;13.20;99.90;;;;;;6194755;23;20036;-87
2021/06/01 00:53:24;;;;;;;10.35;5.43;;;13.20;99.90;;;;;;6194402;23;20090;-86
2021/06/01 00:55:51;;;;;;;12.50;6.18;;;13.20;99.90;;;;;;6169721;23;20352;-86
2021/06/01 00:58:19;;;;;;;10.20;5.68;;;13.20;99.90;;;;;;6194674;23;20044;-85
2021/06/01 01:01:07;;;;;;;11.18;6.28;;;13.10;99.90;;;;;;6169893;23;20056;-86
2021/06/01 01:03:39;;;;;;;11.88;6.07;;;13.10;99.90;;;;;;6195542;23;20038;-87
2021/06/01 01:06:14;;;;;;;12.65;5.95;;;13.00;99.90;;;;;;6194286;23;20041;-86
2021/06/01 01:08:49;;;;;;;10.73;6.32;;;13.00;99.90;;;;;;6169241;23;20044;-86
2021/06/01 01:11:23;;;;;;;9.73;5.90;;;12.90;99.90;;;;;;6193247;23;20081;-86
2021/06/01 01:13:55;;;;;;;11.85;6.25;;;12.90;99.90;;;;;;6169715;23;20045;-86
2021/06/01 01:16:27;;;;;;;10.65;5.72;;;12.90;99.90;;;;;;6175399;23;20009;-86
2021/06/01 01:19:03;;;;;;;11.55;5.75;;;12.80;99.90;;;;;;6200298;23;20016;-86
2021/06/01 01:21:35;;;;;;;16.55;6.38;;;12.80;99.90;;;;;;6180298;23;20012;-85
2021/06/01 01:24:15;;;;;;;9.02;5.47;;;12.70;99.90;;;;;;6180878;23;20024;-86
2021/06/01 01:26:53;;;;;;;9.73;5.80;;;13.20;99.90;;;;;;6209136;23;20009;-87
2021/06/01 01:29:33;;;;;;;10.77;5.72;;;13.30;99.90;;;;;;6211059;23;20249;-88
2021/06/01 01:32:04;;;;;;;13.48;5.40;;;12.90;99.90;;;;;;6208263;23;20016;-88
2021/06/01 01:34:33;;;;;;;13.05;6.25;;;12.70;99.90;;;;;;6205300;23;20024;-88
2021/06/01 01:37:05;;;;;;;11.65;6.30;;;12.60;99.90;;;;;;6207558;23;20012;-86
2021/06/01 01:39:39;;;;;;;11.50;6.47;;;12.70;99.90;;;;;;6183674;23;20017;-84
2021/06/01 01:42:12;;;;;;;10.48;5.82;;;12.80;99.90;;;;;;6183009;23;20016;-86
2021/06/01 01:44:48;;;;;;;9.25;5.47;;;13.10;99.90;;;;;;6213690;23;20005;-81
2021/06/01 01:50:09;;;;;;;13.15;6.05;;;13.10;99.90;;;;;;6206227;23;20012;-79
2021/06/01 01:52:40;;;;;;;13.05;6.20;;;13.00;99.90;;;;;;6208622;23;20044;-82
2021/06/01 01:55:09;;;;;;;9.57;5.68;;;12.90;99.90;;;;;;6185130;23;20266;-82
2021/06/01 01:57:46;;;;;;;11.05;5.47;;;12.90;99.90;;;;;;6187601;23;20047;-81
2021/06/01 02:00:15;;;;;;;11.70;6.10;;;12.80;99.90;;;;;;6212296;23;20304;-81
2021/06/01 02:02:46;;;;;;;11.10;6.25;;;12.70;99.90;;;;;;6189625;23;20309;-81
2021/06/01 02:05:18;;;;;;;14.25;6.78;;;12.70;99.90;;;;;;6187853;23;20016;-81
2021/06/01 02:07:46;;;;;;;9.63;6.22;;;12.60;99.90;;;;;;6184626;23;20005;-81
2021/06/01 02:10:14;;;;;;;11.70;6.85;;;12.50;99.90;;;;;;6213698;23;20020;-82
2021/06/01 02:12:41;;;;;;;11.35;5.95;;;12.50;99.90;;;;;;6186083;23;20016;-83
2021/06/01 02:15:10;;;;;;;10.02;6.47;;;12.40;99.90;;;;;;6213237;23;20016;-81
2021/06/01 02:17:42;;;;;;;11.20;6.18;;;12.40;99.90;;;;;;6188527;23;20007;-82
2021/06/01 02:20:14;;;;;;;12.43;6.90;;;12.40;99.90;;;;;;6210291;23;20013;-85
2021/06/01 02:25:39;;;;;;;10.15;6.15;;;11.90;99.90;;;;;;6195280;23;20041;-87
2021/06/01 02:28:13;;;;;;;9.65;5.90;;;11.80;99.90;;;;;;6197541;23;20040;-86
2021/06/01 02:30:49;;;;;;;10.95;6.10;;;11.70;99.90;;;;;;6194944;23;20045;-87
2021/06/01 02:33:21;;;;;;;13.88;6.82;;;11.70;99.90;;;;;;6196316;23;20020;-86
2021/06/01 02:35:49;;;;;;;15.02;6.50;;;12.00;99.90;;;;;;6199517;23;20045;-85
2021/06/01 02:38:21;;;;;;;9.57;5.75;;;12.20;99.90;;;;;;6185390;23;20017;-83
2021/06/01 02:40:53;;;;;;;10.50;6.22;;;12.20;99.90;;;;;;6216229;23;20009;-85
2021/06/01 02:43:23;;;;;;;12.50;7.05;;;12.20;99.90;;;;;;6202107;23;20015;-81
2021/06/01 02:45:51;;;;;;;12.98;6.00;;;12.30;99.90;;;;;;6177736;23;20013;-81
2021/06/01 02:48:22;;;;;;;11.18;6.70;;;12.30;99.90;;;;;;6182744;23;20005;-81
2021/06/01 02:50:52;;;;;;;9.55;5.97;;;12.20;99.90;;;;;;6191159;23;20008;-82
2021/06/01 02:53:24;;;;;;;13.57;7.35;;;12.10;99.90;;;;;;6192151;23;20020;-82
2021/06/01 02:55:53;;;;;;;13.40;6.93;;;12.00;99.90;;;;;;6215968;23;20012;-82
2021/06/01 02:58:22;;;;;;;11.30;6.45;;;12.00;99.90;;;;;;6188163;23;20016;-81
2021/06/01 03:00:49;;;;;;;10.37;5.80;;;12.00;99.90;;;;;;6214246;23;20012;-81
2021/06/01 03:03:17;;;;;;;10.57;6.03;;;11.90;99.90;;;;;;6212892;23;20244;-81
2021/06/01 03:05:44;;;;;;;11.23;6.00;;;11.90;99.90;;;;;;6214013;23;20005;-81
2021/06/01 03:08:26;;;;;;;10.57;6.03;;;11.80;99.90;;;;;;6186087;23;20264;-81
2021/06/01 03:10:56;;;;;;;10.45;6.63;;;11.70;99.90;;;;;;6188034;23;20019;-81
2021/06/01 03:13:24;;;;;;;13.27;6.07;;;11.70;99.90;;;;;;6187092;23;20012;-82
2021/06/01 03:15:51;;;;;;;10.15;6.60;;;11.60;99.90;;;;;;6183763;23;20012;-81
2021/06/01 03:18:19;;;;;;;10.43;6.53;;;11.60;99.90;;;;;;6213638;23;20001;-81
2021/06/01 03:20:50;;;;;;;10.63;6.40;;;11.60;99.90;;;;;;6188614;23;20087;-82
2021/06/01 03:23:19;;;;;;;9.98;6.10;;;11.70;99.90;;;;;;6214150;23;20005;-81
2021/06/01 03:25:53;;;;;;;9.70;6.43;;;11.70;99.90;;;;;;6189806;23;20017;-81
2021/06/01 03:28:22;;;;;;;16.38;7.10;;;11.60;99.90;;;;;;6212424;23;20009;-82
2021/06/01 03:30:52;;;;;;;11.50;6.50;;;11.60;99.90;;;;;;6210259;23;20009;-81
2021/06/01 03:33:19;;;;;;;11.05;6.25;;;11.50;99.90;;;;;;6207060;23;20016;-81
2021/06/01 03:35:49;;;;;;;12.65;7.28;;;11.40;99.90;;;;;;6208015;23;20013;-82
2021/06/01 03:38:16;;;;;;;9.68;6.20;;;11.40;99.90;;;;;;6208824;23;20028;-81
2021/06/01 03:40:44;;;;;;;13.63;6.97;;;11.50;99.90;;;;;;6187419;23;20243;-81
2021/06/01 03:43:16;;;;;;;12.93;6.93;;;11.50;99.90;;;;;;6183468;23;20012;-81
2021/06/01 03:45:43;;;;;;;;;;;11.60;99.90;;;;;;6210243;23;20020;-82
2021/06/01 03:48:12;;;;;;;13.63;7.05;;;11.60;99.90;;;;;;6186290;23;19924;-83
2021/06/01 03:50:42;;;;;;;12.90;7.63;;;11.50;99.90;;;;;;6177654;23;20013;-82
2021/06/01 03:53:10;;;;;;;13.48;6.85;;;11.40;99.90;;;;;;6176670;23;20004;-82
2021/06/01 03:55:37;;;;;;;13.38;6.93;;;11.30;99.90;;;;;;6180512;23;20009;-82
2021/06/01 03:58:04;;;;;;;11.93;7.35;;;11.30;99.90;;;;;;6182285;23;20016;-82
2021/06/01 04:00:33;;;;;;;10.88;7.28;;;11.30;99.90;;;;;;6182651;23;20009;-82
2021/06/01 04:03:01;;;;;;;13.15;7.40;;;11.30;99.90;;;;;;6208823;23;20014;-83
2021/06/01 04:05:31;;;;;;;18.60;8.25;;;11.30;99.90;;;;;;6189143;23;20004;-83
2021/06/01 04:07:58;;;;;;;12.38;7.15;;;11.40;99.90;;;;;;6210825;23;20020;-82
2021/06/01 04:10:26;;;;;;;16.35;7.28;;;11.50;99.90;;;;;;6207845;23;20048;-83
2021/06/01 04:12:53;;;;;;;15.55;7.95;;;11.50;99.90;;;;;;6211230;23;20020;-82
2021/06/01 04:15:23;;;;;;;15.63;7.88;;;11.50;99.90;;;;;;6210871;23;20012;-81
2021/06/01 04:17:55;;;;;;;15.88;7.05;;;11.50;99.90;;;;;;6205400;23;20335;-80
2021/06/01 04:20:22;;;;;;;13.80;8.52;;;11.70;99.90;;;;;;6175764;23;20013;-81
2021/06/01 04:22:50;;;;;;;12.10;7.43;;;11.70;99.90;;;;;;6224081;23;20053;-81
2021/06/01 04:25:17;;;;;;;13.85;7.72;;;11.80;99.90;;;;;;6174862;23;20331;-82
2021/06/01 04:27:44;;;;;;;13.98;7.63;;;11.80;99.90;;;;;;6202170;23;20044;-81
2021/06/01 04:30:13;;;;;;;11.80;7.22;;;11.80;99.90;;;;;;6200751;23;20225;-81
2021/06/01 04:32:40;;;;;;;17.50;7.95;;;11.80;99.90;;;;;;6178312;23;20013;-80
2021/06/01 04:35:11;;;;;;;14.55;7.15;;;11.80;99.90;;;;;;6179284;23;20027;-81
2021/06/01 04:37:41;;;;;;;14.43;8.05;;;11.80;99.90;;;;;;6208721;23;20016;-83
2021/06/01 04:40:12;;;;;;;13.63;7.50;;;11.90;99.90;;;;;;6206186;23;20017;-82
2021/06/01 04:42:40;;;;;;;18.55;7.97;;;11.90;99.90;;;;;;6175964;23;20040;-83
2021/06/01 04:45:08;;;;;;;12.13;7.37;;;12.00;99.90;;;;;;6197860;23;20012;-88
2021/06/01 04:47:36;;;;;;;14.02;8.18;;;12.20;99.90;;;;;;6198114;23;20244;-87
2021/06/01 04:50:04;;;;;;;11.48;7.65;;;12.40;99.90;;;;;;6171645;23;20272;-87
2021/06/01 04:52:36;;;;;;;19.23;8.57;;;12.40;99.90;;;;;;6198679;23;20019;-87
2021/06/01 04:55:04;;;;;;;13.52;7.40;;;12.50;99.90;;;;;;6177192;23;20005;-86
2021/06/01 04:57:34;;;;;;;13.85;8.02;;;12.60;99.90;;;;;;6173180;23;20040;-87
2021/06/01 05:00:03;;;;;;;16.33;7.40;;;12.60;99.90;;;;;;6197637;23;20016;-86
2021/06/01 05:02:30;;;;;;;15.82;7.45;;;12.80;99.90;;;;;;6194806;23;20049;-88
2021/06/01 05:04:58;;;;;;;12.45;7.65;;;12.90;99.90;;;;;;6195278;23;20016;-88
2021/06/01 05:07:27;;;;;;;13.57;7.63;;;13.00;99.90;;;;;;6170181;23;20037;-86
2021/06/01 05:10:00;;;;;;;17.63;10.15;;;13.10;99.90;;;;;;6168829;23;20041;-85
2021/06/01 05:12:28;;;;;;;13.50;7.85;;;13.20;99.90;;;;;;6195837;23;20104;-87
2021/06/01 05:14:56;;;;;;;12.73;7.28;;;13.30;99.90;;;;;;6195087;23;20049;-88
2021/06/01 05:17:23;;;;;;;15.73;7.63;;;13.30;99.90;;;;;;6195396;23;20037;-88
2021/06/01 05:19:50;;;;;;;14.35;7.53;;;13.50;99.90;;;;;;6168704;23;20037;-88
2021/06/01 05:22:18;;;;;;;16.08;7.15;;;13.60;99.90;;;;;;6194038;23;20049;-88
2021/06/01 05:24:45;;;;;;;14.27;6.25;;;13.80;99.90;;;;;;6168813;23;20032;-88
2021/06/01 05:27:17;;;;;;;10.73;5.97;;;13.90;99.90;;;;;;6194153;23;20415;-88
2021/06/01 05:29:48;;;;;;;19.08;6.68;;;14.10;99.90;;;;;;6193952;23;20065;-88
2021/06/01 05:35:19;;;;;;;13.98;5.80;;;14.40;99.90;;;;;;3614513;39;20416;-81
2021/06/01 05:37:46;;;;;;;13.63;6.00;;;14.50;99.90;;;;;;3606006;39;20082;-82
2021/06/01 05:40:14;;;;;;;13.30;6.45;;;14.60;99.90;;;;;;3609969;39;20076;-82
2021/06/01 05:42:41;;;;;;;12.40;5.32;;;14.80;99.90;;;;;;3591845;39;20071;-82
2021/06/01 05:45:10;;;;;;;10.52;5.35;;;14.90;99.90;;;;;;3620238;39;20067;-84
2021/06/01 05:47:39;;;;;;;12.70;5.75;;;15.00;99.90;;;;;;3611922;39;20083;-82
2021/06/01 05:50:07;;;;;;;15.88;6.03;;;15.10;99.10;;;;;;3621710;39;20065;-82
2021/06/01 05:52:36;;;;;;;16.67;6.97;;;15.20;99.00;;;;;;3613006;39;20062;-83
2021/06/01 05:55:04;;;;;;;;;;;15.30;98.70;;;;;;3609011;39;20688;-84
2021/06/01 05:57:34;;;;;;;10.90;4.72;;;15.30;98.60;;;;;;3620101;39;19963;-83
2021/06/01 06:00:01;;;;;;;15.65;6.68;;;15.40;98.20;;;;;;3603738;39;20327;-82
2021/06/01 06:02:28;;;;;;;11.50;5.38;;;15.50;97.60;;;;;;3619010;39;20091;-81
2021/06/01 06:04:55;;;;;;;11.48;5.80;;;15.60;97.30;;;;;;3615830;39;20060;-80
2021/06/01 06:07:23;;;;;;;11.27;5.88;;;15.70;98.10;;;;;;3617507;39;20056;-79
2021/06/01 06:09:54;;;;;;;11.80;4.90;;;15.80;97.60;;;;;;3616652;39;20072;-80
2021/06/01 06:12:24;;;;;;;12.85;5.97;;;15.90;97.20;;;;;;3604397;39;20075;-81
2021/06/01 06:14:51;;;;;;;17.33;8.00;;;16.00;95.50;;;;;;3616912;39;20064;-81
2021/06/01 06:17:34;;;;;;;10.20;5.45;;;16.10;95.70;;;;;;3616589;39;20079;-79
2021/06/01 06:20:07;;;;;;;10.07;5.07;;;16.20;96.60;;;;;;3613141;39;20056;-80
2021/06/01 06:22:36;;;;;;;17.25;7.45;;;16.40;95.40;;;;;;3607536;39;20090;-80
2021/06/01 06:25:05;;;;;;;11.73;6.03;;;16.50;94.60;;;;;;3616622;39;20082;-80
2021/06/01 06:27:32;;;;;;;16.48;5.53;;;16.60;94.00;;;;;;3616500;39;20067;-81
2021/06/01 06:30:00;;;;;;;15.82;5.22;;;16.70;93.80;;;;;;3606663;39;20095;-80
2021/06/01 06:32:29;;;;;;;11.55;5.75;;;16.80;93.50;;;;;;3615157;39;20074;-79
2021/06/01 06:34:57;;;;;;;12.15;6.05;;;16.90;92.00;;;;;;3599550;39;20077;-79
2021/06/01 06:37:25;;;;;;;10.38;4.88;;;17.00;91.20;;;;;;3618382;39;20087;-79
2021/06/01 06:39:54;;;;;;;14.80;5.13;;;17.10;90.40;;;;;;3616517;39;20395;-82
2021/06/01 06:42:23;;;;;;;13.55;5.60;;;17.10;90.00;;;;;;3627065;39;20119;-77
2021/06/01 06:44:56;;;;;;;14.30;5.30;;;17.30;89.20;;;;;;3616337;39;20396;-79
2021/06/01 06:47:29;;;;;;;10.70;5.47;;;17.30;86.00;;;;;;3592045;39;20059;-80
2021/06/01 06:49:56;;;;;;;9.68;5.63;;;17.30;85.90;;;;;;3602992;39;20080;-80
2021/06/01 06:52:29;;;;;;;8.52;5.00;;;17.40;86.50;;;;;;3601801;39;20064;-79
2021/06/01 06:55:00;;;;;;;8.82;5.20;;;17.40;85.10;;;;;;3602465;39;20084;-79
2021/06/01 06:57:30;;;;;;;9.38;5.30;;;17.50;83.90;;;;;;3609248;39;20068;-78
2021/06/01 06:59:58;;;;;;;12.40;5.35;;;17.60;82.50;;;;;;3613257;39;20536;-81
2021/06/01 07:02:28;;;;;;;10.68;5.25;;;17.60;81.70;;;;;;3592166;40;20423;-79
2021/06/01 07:04:56;;;;;;;11.95;5.43;;;17.70;82.30;;;;;;3611272;39;20279;-77
2021/06/01 07:07:26;;;;;;;12.10;4.82;;;17.80;80.90;;;;;;3605148;39;20079;-79
2021/06/01 07:09:53;;;;;;;9.15;4.40;;;17.90;80.30;;;;;;3602326;39;20194;-81
2021/06/01 07:12:21;;;;;;;11.45;5.35;;;17.90;79.60;;;;;;3610180;39;20062;-80
2021/06/01 07:15:02;;;;;;;11.40;5.28;;;18.00;77.50;;;;;;3596068;39;20106;-80
2021/06/01 07:17:31;;;;;;;7.88;4.60;;;18.10;77.00;;;;;;3600930;39;20146;-81
2021/06/01 07:20:01;;;;;;;12.85;6.70;;;18.20;76.40;;;;;;3602254;39;20558;-81
2021/06/01 07:22:30;;;;;;;9.70;5.00;;;18.30;76.20;;;;;;3601599;39;20386;-81
2021/06/01 07:24:59;;;;;;;11.57;5.18;;;18.30;75.10;;;;;;3602326;39;20278;-81
2021/06/01 07:27:32;;;;;;;10.88;4.82;;;18.40;75.30;;;;;;3613291;39;20083;-82
2021/06/01 07:30:13;;;;;;;14.25;4.75;;;18.40;73.80;;;;;;3602144;39;20099;-81
2021/06/01 07:32:56;;;;;;;11.13;4.05;;;18.60;72.90;;;;;;3601487;39;20095;-82
2021/06/01 07:35:28;;;;;;;9.55;4.10;;;18.70;69.40;;;;;;3590128;40;20156;-81
2021/06/01 07:37:56;;;;;;;9.15;3.80;;;18.80;68.80;;;;;;3577190;40;20384;-80
2021/06/01 07:40:26;;;;;;;6.25;3.50;;;18.90;68.90;;;;;;3590008;40;20184;-81
2021/06/01 07:42:53;;;;;;;6.20;3.45;;;18.90;68.10;;;;;;3581640;40;20068;-80
2021/06/01 07:45:23;;;;;;;10.60;3.90;;;18.90;66.80;;;;;;3581702;40;20072;-80
2021/06/01 07:47:51;;;;;;;8.50;3.67;;;19.00;66.20;;;;;;3577417;40;20088;-80
2021/06/01 07:50:18;;;;;;;8.93;3.63;;;19.00;67.00;;;;;;3580042;40;20375;-82
2021/06/01 07:52:45;;;;;;;8.13;3.28;;;19.10;66.00;;;;;;3588818;40;20080;-80
2021/06/01 07:55:15;;;;;;;11.40;3.45;;;19.20;66.80;;;;;;3589760;40;20057;-80
2021/06/01 07:57:45;;;;;;;8.38;3.17;;;19.30;64.90;;;;;;3587041;40;20084;-80
2021/06/01 08:00:17;;;;;;;12.77;3.58;;;19.30;64.40;;;;;;3579392;40;20084;-81
2021/06/01 08:02:46;;;;;;;10.43;3.90;;;19.40;63.50;;;;;;3581839;40;20358;-80
2021/06/01 08:05:20;;;;;;;7.05;3.28;;;19.50;62.60;;;;;;3589429;40;20068;-80
2021/06/01 08:07:49;;;;;;;13.95;3.05;;;19.60;62.30;;;;;;3593117;40;20076;-82
2021/06/01 08:10:27;;;;;;;5.78;3.00;;;19.70;61.30;;;;;;3584682;40;20065;-82
2021/06/01 08:12:56;;;;;;;5.80;2.95;;;19.70;60.30;;;;;;3583888;40;20084;-79
2021/06/01 08:15:25;;;;;;;5.65;2.80;;;19.70;59.90;;;;;;3587250;40;20134;-78
2021/06/01 08:17:57;;;;;;;6.78;2.47;;;19.80;60.10;;;;;;3593349;40;20380;-79
2021/06/01 08:20:36;;;;;;;8.02;2.25;;;19.90;59.20;;;;;;3590606;40;20077;-82
2021/06/01 08:23:03;;;;;;;;;;;20.00;58.80;;;;;;3581482;40;20300;-79
2021/06/01 08:25:30;;;;;;;6.07;2.83;;;20.10;58.00;;;;;;3580096;40;19976;-79
2021/06/01 08:28:10;;;;;;;;;;;;;;;;;;;;;
2021/06/01 08:30:39;;;;;;;7.50;2.50;;;20.20;57.70;;;;;;3580241;40;20073;-79
2021/06/01 08:33:08;;;;;;;4.95;1.70;;;20.30;57.00;;;;;;3589566;40;20072;-78
2021/06/01 08:35:35;;;;;;;6.05;2.00;;;20.50;55.50;;;;;;3605612;39;20355;-78
2021/06/01 08:38:02;;;;;;;4.35;1.85;;;20.60;54.10;;;;;;3603436;39;20087;-80
2021/06/01 08:40:30;;;;;;;4.60;2.00;;;20.70;53.50;;;;;;3597029;39;20160;-78
2021/06/01 08:42:57;;;;;;;3.35;1.88;;;20.80;55.20;;;;;;3609248;39;20430;-82
2021/06/01 08:45:25;;;;;;;6.10;2.10;;;20.90;55.70;;;;;;3609035;39;20083;-80
2021/06/01 08:47:56;;;;;;;6.57;1.90;;;21.00;55.50;;;;;;3605506;39;20088;-79
2021/06/01 08:50:25;;;;;;;5.80;1.70;;;21.00;55.60;;;;;;3610235;39;20083;-79
2021/06/01 08:52:52;;;;;;;6.32;1.80;;;21.10;54.00;;;;;;3610814;39;20333;-79
2021/06/01 08:55:19;;;;;;;7.15;2.88;;;21.30;54.70;;;;;;3610380;39;20075;-79
2021/06/01 08:57:47;;;;;;;5.53;1.90;;;21.30;54.60;;;;;;3607035;39;20092;-79
2021/06/01 09:00:14;;;;;;;4.90;2.10;;;21.40;55.60;;;;;;3610431;39;20067;-79
2021/06/01 09:02:42;;;;;;;5.20;2.00;;;21.50;54.20;;;;;;3607787;39;20060;-79
2021/06/01 09:05:14;;;;;;;11.77;3.25;;;21.60;54.80;;;;;;3610325;39;20071;-78
2021/06/01 09:07:52;;;;;;;4.57;2.08;;;21.70;54.60;;;;;;3609121;39;20159;-80
2021/06/01 09:21:40;;;;;;;4.40;2.20;;;22.50;53.00;;;;;;3606868;39;20343;-77
2021/06/01 09:24:09;;;;;;;5.75;2.45;;;22.70;53.20;;;;;;3605225;39;20072;-78
2021/06/01 09:26:42;;;;;;;9.13;2.33;;;22.90;53.60;;;;;;3608160;39;20056;-80
2021/06/01 09:29:10;;;;;;;4.68;2.35;;;23.10;52.40;;;;;;3607814;39;20091;-79
2021/06/01 09:31:37;;;;;;;6.13;2.10;;;23.30;51.50;;;;;;3598380;39;20071;-80
2021/06/01 09:34:06;;;;;;;4.97;2.22;;;23.30;51.10;;;;;;3606541;39;20080;-79
2021/06/01 09:36:34;;;;;;;6.43;2.08;;;23.50;51.00;;;;;;3609201;39;20091;-79
2021/06/01 09:39:07;;;;;;;5.60;2.03;;;23.60;50.70;;;;;;3593509;39;20399;-79
2021/06/01 09:41:35;;;;;;;4.00;2.20;;;23.70;49.80;;;;;;3608027;39;20087;-80
2021/06/01 09:44:08;;;;;;;5.63;2.10;;;23.80;48.90;;;;;;3605570;39;20063;-80
2021/06/01 09:46:36;;;;;;;6.10;2.40;;;23.90;48.90;;;;;;3615581;39;20056;-79
2021/06/01 09:49:22;;;;;;;5.75;2.40;;;24.00;48.50;;;;;;3609502;39;20083;-78
2021/06/01 09:51:52;;;;;;;6.70;2.03;;;24.00;48.70;;;;;;3607876;39;20068;-81
2021/06/01 09:54:32;;;;;;;4.90;2.25;;;24.10;49.40;;;;;;3609434;39;20083;-80
2021/06/01 09:57:17;;;;;;;5.68;2.40;;;24.10;48.70;;;;;;3608399;39;20068;-80
2021/06/01 10:00:14;;;;;;;6.82;2.47;;;24.10;48.80;;;;;;3600297;39;20063;-80
2021/06/01 10:02:43;;;;;;;7.75;2.50;;;24.10;49.30;;;;;;3607877;39;20095;-80
2021/06/01 10:05:12;;;;;;;;;;;24.10;50.10;;;;;;3601114;39;20068;-81
2021/06/01 10:07:42;;;;;;;4.72;2.38;;;24.20;49.70;;;;;;3600083;39;19991;-79
2021/06/01 10:10:18;;;;;;;5.32;2.38;;;24.30;48.10;;;;;;3609422;39;20072;-81
2021/06/01 10:12:50;;;;;;;4.93;1.85;;;24.60;46.70;;;;;;3609737;39;20064;-81
2021/06/01 10:15:21;;;;;;;8.00;2.72;;;25.00;47.10;;;;;;3610296;39;20080;-78
2021/06/01 10:17:49;;;;;;;9.07;2.72;;;25.30;46.50;;;;;;3611606;39;20064;-81
2021/06/01 10:20:28;;;;;;;6.35;2.53;;;25.50;45.30;;;;;;3605830;39;20072;-82
2021/06/01 10:22:55;;;;;;;5.65;2.28;;;25.60;45.30;;;;;;3609480;39;20040;-81
2021/06/01 10:25:23;;;;;;;5.75;2.63;;;26.30;44.80;;;;;;3609832;39;20071;-80
2021/06/01 10:27:52;;;;;;;5.80;2.40;;;27.30;44.00;;;;;;3602222;39;20095;-79
2021/06/01 10:30:22;;;;;;;4.95;2.22;;;28.10;43.20;;;;;;3607660;39;20079;-80
2021/06/01 10:32:53;;;;;;;7.43;3.72;;;28.90;42.60;;;;;;3615976;39;20075;-79
2021/06/01 10:35:23;;;;;;;8.38;2.70;;;29.50;41.40;;;;;;3601533;39;20072;-80
2021/06/01 10:52:16;;;;;;;16.70;4.40;;;32.60;37.40;;;;;;3564884;40;20080;-81
2021/06/01 10:54:53;;;;;;;5.68;2.35;;;33.20;36.70;;;;;;3606830;39;20070;-82
2021/06/01 10:57:22;;;;;;;7.07;2.70;;;33.20;34.50;;;;;;3609404;39;20068;-80
2021/06/01 11:01:50;;;;;;;8.52;2.88;;;32.50;34.80;;;;;;3609017;39;20087;-80
2021/06/01 11:03:06;;;;;;;6.70;2.30;;;32.70;35.70;;;;;;3607025;39;20076;-82
2021/06/01 11:06:12;;;;;;;4.55;2.25;;;33.80;35.60;;;;;;3599681;39;20080;-81
2021/06/01 11:08:44;;;;;;;13.13;3.10;;;34.80;33.70;;;;;;3618005;39;20111;-82
2021/06/01 11:11:34;;;;;;;6.00;2.58;;;35.20;32.60;;;;;;3607692;39;20059;-81
2021/06/01 11:14:28;;;;;;;5.82;2.72;;;35.60;32.60;;;;;;3609875;39;20063;-80
2021/06/01 11:16:59;;;;;;;5.75;2.58;;;36.50;31.90;;;;;;3615332;39;20087;-82
2021/06/01 11:19:47;;;;;;;3.95;1.98;;;36.80;31.50;;;;;;3607376;39;20068;-81
2021/06/01 11:22:22;;;;;;;5.80;2.20;;;36.80;31.20;;;;;;3599308;39;20299;-81
2021/06/01 11:33:52;;;;;;;9.52;3.50;;;38.70;30.10;;;;;;3607042;39;20063;-80
2021/06/01 11:36:23;;;;;;;7.93;2.30;;;38.80;29.60;;;;;;3602662;39;20317;-82
2021/06/01 11:38:55;;;;;;;4.93;2.25;;;38.30;29.40;;;;;;3608921;39;20083;-80
2021/06/01 11:42:47;;;;;;;4.50;2.22;;;37.50;29.60;;;;;;3608466;39;20088;-80
2021/06/01 11:44:19;;;;;;;;;;;36.90;30.00;;;;;;3609242;39;20123;-82
2021/06/01 11:46:50;;;;;;;4.65;2.20;;;37.00;30.10;;;;;;3595599;39;21014;-81
2021/06/01 11:52:08;;;;;;;6.53;2.20;;;37.20;29.80;;;;;;3603965;39;20076;-80
2021/06/01 11:54:37;;;;;;;3.88;2.40;;;37.70;29.80;;;;;;3607768;39;20111;-80
2021/06/01 11:57:12;;;;;;;8.32;2.55;;;37.60;29.90;;;;;;3604271;39;20072;-81
2021/06/01 12:02:39;;;;;;;5.78;2.42;;;38.80;29.20;;;;;;3610867;39;20075;-83
2021/06/01 12:13:48;;;;;;;6.15;2.47;;;40.30;28.80;;;;;;3606441;39;20072;-82
2021/06/01 12:19:13;;;;;;;;;;;39.90;28.50;;;;;;3583332;39;20083;-82
2021/06/01 12:21:42;;;;;;;4.00;2.17;;;40.00;28.20;;;;;;3606375;39;19964;-82
2021/06/01 12:24:14;;;;;;;4.03;2.22;;;40.40;28.10;;;;;;3604937;39;20079;-80
2021/06/01 12:26:54;;;;;;;5.25;2.40;;;40.60;28.40;;;;;;3606475;39;20323;-80
2021/06/01 12:32:14;;;;;;;5.72;2.30;;;39.90;28.60;;;;;;3609473;39;20126;-81
2021/06/01 12:34:54;;;;;;;5.70;2.53;;;39.90;29.00;;;;;;3607880;39;20036;-83
2021/06/01 12:43:05;;;;;;;9.32;2.33;;;41.70;27.70;;;;;;3609351;39;20136;-81
2021/06/01 12:45:50;;;;;;;6.20;2.20;;;42.20;27.60;;;;;;3606829;39;20091;-83
2021/06/01 13:14:29;;;;;;;4.93;2.38;;;39.60;28.20;;;;;;3605323;39;20485;-80
2021/06/01 13:19:59;;;;;;;;;;;36.10;29.80;;;;;;3610255;39;19992;-78
2021/06/01 13:22:44;;;;;;;9.43;2.70;;;36.10;30.70;;;;;;3596463;40;19980;-81
2021/06/01 13:31:55;;;;;;;5.97;2.80;;;41.20;28.40;;;;;;3586143;39;20088;-83
2021/06/01 13:37:43;;;;;;;4.43;2.70;;;38.50;29.20;;;;;;3605986;39;20064;-79
2021/06/01 13:40:23;;;;;;;7.55;2.92;;;38.30;29.90;;;;;;3598120;39;20075;-82
2021/06/01 13:46:13;;;;;;;6.13;2.65;;;40.70;28.70;;;;;;3561630;40;20319;-80
2021/06/01 13:48:53;;;;;;;6.70;2.90;;;40.20;28.80;;;;;;3579806;40;20054;-83
2021/06/01 14:31:21;;;;;;;4.68;2.67;;;40.00;28.50;;;;;;3602615;39;20071;-81
2021/06/01 14:36:55;;;;;;;5.75;2.50;;;40.50;28.00;;;;;;3611952;39;20068;-80
2021/06/01 14:40:03;;;;;;;4.03;2.47;;;38.90;28.70;;;;;;3593946;39;20072;-80
2021/06/01 15:47:50;;;;;;;6.68;2.80;;;33.90;32.70;;;;;;3542524;40;20066;-80
2021/06/01 15:50:23;;;;;;;6.55;2.67;;;33.60;33.00;;;;;;3550609;40;20070;-81
2021/06/01 16:13:09;;;;;;;11.60;4.35;;;33.00;33.80;;;;;;3590798;39;20294;-79
2021/06/01 16:21:31;;;;;;;10.02;3.53;;;30.60;36.70;;;;;;3604156;39;20075;-84
2021/06/01 16:30:04;;;;;;;5.82;3.25;;;28.60;38.90;;;;;;3593286;39;20075;-80
2021/06/01 16:44:18;;;;;;;6.28;3.40;;;27.70;40.20;;;;;;3593305;40;20303;-81
2021/06/01 17:03:30;;;;;;;8.57;4.05;;;26.40;45.60;;;;;;3600978;39;20423;-85
2021/06/01 17:06:05;;;;;;;6.20;3.63;;;26.30;46.10;;;;;;3617454;39;20059;-82
2021/06/01 17:08:47;;;;;;;13.43;3.97;;;26.20;46.10;;;;;;3601199;39;20083;-81
2021/06/01 17:11:18;;;;;;;8.80;4.22;;;26.20;46.50;;;;;;3609980;39;20324;-83
2021/06/01 17:13:52;;;;;;;7.38;3.28;;;26.20;46.90;;;;;;3601651;39;20387;-80
2021/06/01 17:16:29;;;;;;;9.40;3.72;;;26.20;47.00;;;;;;3598965;39;20066;-83
2021/06/01 17:19:28;;;;;;;6.57;4.00;;;26.10;47.70;;;;;;3591647;39;20391;-81
2021/06/01 17:36:16;;;;;;;6.90;3.88;;;25.90;48.60;;;;;;3597006;39;20064;-80
2021/06/01 17:38:44;;;;;;;8.40;4.10;;;25.70;49.10;;;;;;3601691;39;20083;-82
2021/06/01 17:41:15;;;;;;;6.40;3.50;;;25.60;49.50;;;;;;3600318;39;20079;-82
2021/06/01 17:43:47;;;;;;;8.02;3.88;;;25.60;49.50;;;;;;3607476;39;20080;-83
2021/06/01 17:46:16;;;;;;;8.77;4.00;;;25.50;49.50;;;;;;3601481;39;20068;-82
2021/06/01 17:48:54;;;;;;;8.15;3.80;;;25.40;49.90;;;;;;3594249;39;20076;-83
2021/06/01 17:51:25;;;;;;;7.90;3.58;;;25.40;50.10;;;;;;3603830;39;20076;-81
2021/06/01 17:53:55;;;;;;;6.22;3.75;;;25.40;49.90;;;;;;3596936;39;20054;-82
2021/06/01 17:56:27;;;;;;;9.70;4.07;;;25.40;49.80;;;;;;3609667;39;20407;-82
2021/06/01 17:58:57;;;;;;;9.50;3.88;;;25.40;49.90;;;;;;3610573;39;20065;-80
2021/06/01 18:01:27;;;;;;;8.10;3.97;;;25.40;50.10;;;;;;3613426;39;20395;-82